createdAt,value
2023-04-11T00:02:12.923Z,37.40
2023-04-11T00:04:43.010Z,37.50
2023-04-11T00:07:10.724Z,37.60
2023-04-11T00:09:37.672Z,37.60
2023-04-11T00:12:09.726Z,37.60
2023-04-11T00:14:45.589Z,37.60
2023-04-11T00:17:15.956Z,37.60
2023-04-11T00:19:53.247Z,37.60
2023-04-11T00:22:27.780Z,37.70
2023-04-11T00:24:56.935Z,37.70
2023-04-11T00:27:26.192Z,37.80
2023-04-11T00:29:58.080Z,37.70
2023-04-11T00:32:25.303Z,37.70
2023-04-11T00:34:56.923Z,37.80
2023-04-11T00:37:23.826Z,37.80
2023-04-11T00:40:00.251Z,37.80
2023-04-11T00:42:31.913Z,37.70
2023-04-11T00:45:03.526Z,37.80
2023-04-11T00:47:35.458Z,37.80
2023-04-11T00:50:08.266Z,37.80
2023-04-11T00:52:43.752Z,37.80
2023-04-11T00:55:13.203Z,37.90
2023-04-11T00:57:41.975Z,37.80
2023-04-11T01:00:14.770Z,37.80
2023-04-11T01:02:46.640Z,37.80
2023-04-11T01:05:17.305Z,37.80
2023-04-11T01:07:54.820Z,37.90
2023-04-11T01:10:28.855Z,37.90
2023-04-11T01:12:59.715Z,38.00
2023-04-11T01:15:26.960Z,38.00
2023-04-11T01:17:57.953Z,38.00
2023-04-11T01:20:26.390Z,38.10
2023-04-11T01:22:56.860Z,38.20
2023-04-11T01:25:24.094Z,38.20
2023-04-11T01:27:56.363Z,38.20
2023-04-11T01:30:25.734Z,38.20
2023-04-11T01:32:52.709Z,38.30
2023-04-11T01:35:19.740Z,38.40
2023-04-11T01:37:52.085Z,38.50
2023-04-11T01:40:23.992Z,38.50
2023-04-11T01:42:52.095Z,38.50
2023-04-11T01:45:22.877Z,38.50
2023-04-11T01:47:56.823Z,38.60
2023-04-11T01:50:24.836Z,38.70
2023-04-11T01:52:54.782Z,38.60
2023-04-11T01:55:21.692Z,38.60
2023-04-11T01:57:50.696Z,38.60
2023-04-11T02:00:20.972Z,38.70
2023-04-11T02:02:50.320Z,38.70
2023-04-11T02:05:17.405Z,38.80
2023-04-11T02:07:45.177Z,38.90
2023-04-11T02:10:14.612Z,38.90
2023-04-11T02:12:43.629Z,39.00
2023-04-11T02:15:10.946Z,39.80
2023-04-11T02:17:37.880Z,39.10
2023-04-11T02:20:07.138Z,39.20
2023-04-11T02:22:38.677Z,39.20
2023-04-11T02:25:08.901Z,39.40
2023-04-11T02:27:37.888Z,39.50
2023-04-11T02:30:08.432Z,39.60
2023-04-11T02:32:38.869Z,39.90
2023-04-11T02:35:07.776Z,40.10
2023-04-11T02:37:41.775Z,40.30
2023-04-11T02:40:09.808Z,40.70
2023-04-11T02:42:43.223Z,40.80
2023-04-11T02:45:16.062Z,41.00
2023-04-11T02:47:50.058Z,41.90
2023-04-11T02:50:17.171Z,41.50
2023-04-11T02:52:47.981Z,41.60
2023-04-11T02:55:19.642Z,41.70
2023-04-11T02:57:48.599Z,41.80
2023-04-11T03:00:15.788Z,41.90
2023-04-11T03:02:43.537Z,41.90
2023-04-11T03:05:13.612Z,42.10
2023-04-11T03:07:44.149Z,42.20
2023-04-11T03:10:11.153Z,42.40
2023-04-11T03:12:38.214Z,42.50
2023-04-11T03:15:08.420Z,42.70
2023-04-11T03:17:35.793Z,42.90
2023-04-11T03:20:07.222Z,43.10
2023-04-11T03:22:34.201Z,43.10
2023-04-11T03:25:01.160Z,43.20
2023-04-11T03:27:30.214Z,43.50
2023-04-11T03:30:04.288Z,43.70
2023-04-11T03:32:31.377Z,44.10
2023-04-11T03:35:03.319Z,44.10
2023-04-11T03:37:32.785Z,44.20
2023-04-11T03:40:02.233Z,44.20
2023-04-11T03:42:31.694Z,44.50
2023-04-11T03:45:01.045Z,44.60
2023-04-11T03:47:32.627Z,44.90
2023-04-11T03:50:01.208Z,45.00
2023-04-11T03:52:31.634Z,45.00
2023-04-11T03:54:58.580Z,44.70
2023-04-11T03:57:28.136Z,44.90
2023-04-11T03:59:56.287Z,45.10
2023-04-11T04:02:25.490Z,45.20
2023-04-11T04:05:00.536Z,45.30
2023-04-11T04:07:28.464Z,45.30
2023-04-11T04:09:57.861Z,45.30
2023-04-11T04:12:27.161Z,45.50
2023-04-11T04:14:56.319Z,45.50
2023-04-11T04:17:27.832Z,45.50
2023-04-11T04:19:54.704Z,45.60
2023-04-11T04:22:26.523Z,45.60
2023-04-11T04:24:58.208Z,45.40
2023-04-11T04:27:27.703Z,45.60
2023-04-11T04:29:58.870Z,45.70
2023-04-11T04:32:34.570Z,45.70
2023-04-11T04:35:04.773Z,45.80
2023-04-11T04:37:31.777Z,45.90
2023-04-11T04:40:07.974Z,45.90
2023-04-11T04:42:41.416Z,46.10
2023-04-11T04:45:11.368Z,46.20
2023-04-11T04:47:45.448Z,46.20
2023-04-11T04:50:12.481Z,46.30
2023-04-11T04:52:39.379Z,46.20
2023-04-11T04:55:07.511Z,46.20
2023-04-11T04:57:36.548Z,46.20
2023-04-11T05:00:11.657Z,46.20
2023-04-11T05:02:40.586Z,46.20
2023-04-11T05:05:12.019Z,46.10
2023-04-11T05:07:43.774Z,46.10
2023-04-11T05:10:15.387Z,46.00
2023-04-11T05:12:44.470Z,46.00
2023-04-11T05:15:16.427Z,45.90
2023-04-11T05:17:43.572Z,45.70
2023-04-11T05:20:13.551Z,45.70
2023-04-11T05:22:42.987Z,45.70
2023-04-11T05:25:11.594Z,45.70
2023-04-11T05:27:38.505Z,45.70
2023-04-11T05:30:08.481Z,45.70
2023-04-11T05:32:35.654Z,45.70
2023-04-11T05:35:07.122Z,45.50
2023-04-11T05:37:37.196Z,45.20
2023-04-11T05:40:08.857Z,44.90
2023-04-11T05:42:36.072Z,44.80
2023-04-11T05:45:06.375Z,44.60
2023-04-11T05:47:35.675Z,44.80
2023-04-11T05:50:02.568Z,44.80
2023-04-11T05:52:32.002Z,44.90
2023-04-11T05:55:01.577Z,45.10
2023-04-11T05:57:32.951Z,45.10
2023-04-11T06:00:05.831Z,45.10
2023-04-11T06:02:37.528Z,45.20
2023-04-11T06:05:05.015Z,45.30
2023-04-11T06:07:35.916Z,45.50
2023-04-11T06:10:08.851Z,45.60
2023-04-11T06:12:38.894Z,45.60
2023-04-11T06:15:09.290Z,45.70
2023-04-11T06:17:40.833Z,45.80
2023-04-11T06:20:10.420Z,45.90
2023-04-11T06:22:40.023Z,45.90
2023-04-11T06:25:07.894Z,45.70
2023-04-11T06:27:34.824Z,45.70
2023-04-11T06:30:01.848Z,45.80
2023-04-11T06:32:31.857Z,45.90
2023-04-11T06:35:03.682Z,45.90
2023-04-11T06:37:33.147Z,45.80
2023-04-11T06:40:05.354Z,45.80
2023-04-11T06:42:32.435Z,46.00
2023-04-11T06:45:01.852Z,46.10
2023-04-11T06:47:35.625Z,46.10
2023-04-11T06:50:02.673Z,46.20
2023-04-11T06:52:30.377Z,46.20
2023-04-11T06:54:59.517Z,46.30
2023-04-11T06:57:31.457Z,46.40
2023-04-11T06:59:58.394Z,46.40
2023-04-11T07:02:28.054Z,46.40
2023-04-11T07:04:58.221Z,46.40
2023-04-11T07:07:25.193Z,46.50
2023-04-11T07:09:53.375Z,46.50
2023-04-11T07:12:25.054Z,46.40
2023-04-11T07:14:54.927Z,46.40
2023-04-11T07:17:21.822Z,46.40
2023-04-11T07:19:48.846Z,46.90
2023-04-11T07:22:18.038Z,46.30
2023-04-11T07:24:46.597Z,46.30
2023-04-11T07:27:14.356Z,46.30
2023-04-11T07:29:48.671Z,46.30
2023-04-11T07:32:15.732Z,46.20
2023-04-11T07:34:45.392Z,46.20
2023-04-11T07:37:12.510Z,46.20
2023-04-11T07:39:41.647Z,46.20
2023-04-11T07:42:08.597Z,46.20
2023-04-11T07:44:40.075Z,46.10
2023-04-11T07:47:08.998Z,45.90
2023-04-11T07:49:38.076Z,45.80
2023-04-11T07:52:07.965Z,45.70
2023-04-11T07:54:37.443Z,45.80
2023-04-11T07:57:04.362Z,46.00
2023-04-11T07:59:40.769Z,46.10
2023-04-11T08:02:08.096Z,46.10
2023-04-11T08:04:39.011Z,46.10
2023-04-11T08:07:11.433Z,46.10
2023-04-11T08:09:42.451Z,46.00
2023-04-11T08:12:10.607Z,45.80
2023-04-11T08:14:42.084Z,45.70
2023-04-11T08:17:27.050Z,45.40
2023-04-11T08:19:57.358Z,45.20
2023-04-11T08:22:24.653Z,45.20
2023-04-11T08:24:52.219Z,45.00
2023-04-11T08:27:26.251Z,45.00
2023-04-11T08:30:02.263Z,44.80
2023-04-11T08:32:31.755Z,44.60
2023-04-11T08:35:01.695Z,44.60
2023-04-11T08:37:31.332Z,45.30
2023-04-11T08:39:58.319Z,44.60
2023-04-11T08:42:32.894Z,44.40
2023-04-11T08:45:08.514Z,44.20
2023-04-11T08:47:39.169Z,43.90
2023-04-11T08:50:13.718Z,43.70
2023-04-11T08:52:45.194Z,43.60
2023-04-11T08:55:12.681Z,43.60
2023-04-11T08:57:39.609Z,43.70
2023-04-11T09:00:19.206Z,43.80
2023-04-11T09:03:04.981Z,43.70
2023-04-11T09:05:40.853Z,43.90
2023-04-11T09:08:17.952Z,43.90
2023-04-11T09:10:54.422Z,43.80
2023-04-11T09:13:24.805Z,43.80
2023-04-11T09:16:16.527Z,43.60
2023-04-11T09:18:47.654Z,43.50
2023-04-11T09:21:16.873Z,43.60
2023-04-11T09:23:46.559Z,43.70
2023-04-11T09:26:28.613Z,43.60
2023-04-11T09:28:57.972Z,43.50
2023-04-11T09:31:46.889Z,43.60
2023-04-11T09:34:16.618Z,43.30
2023-04-11T09:36:56.580Z,43.30
2023-04-11T09:39:28.593Z,43.10
2023-04-11T09:42:00.744Z,43.20
2023-04-11T09:44:39.457Z,43.10
2023-04-11T09:47:06.437Z,42.80
2023-04-11T09:49:35.023Z,42.80
2023-04-11T09:52:05.410Z,42.70
2023-04-11T09:54:36.207Z,42.60
2023-04-11T09:57:08.420Z,42.50
2023-04-11T09:59:39.161Z,42.40
2023-04-11T10:02:08.837Z,42.20
2023-04-11T10:04:38.448Z,42.10
2023-04-11T10:07:20.324Z,42.00
2023-04-11T10:09:47.883Z,41.40
2023-04-11T10:12:36.185Z,41.40
2023-04-11T10:15:10.803Z,41.00
2023-04-11T10:17:43.150Z,41.10
2023-04-11T10:20:32.011Z,41.00
2023-04-11T10:23:02.178Z,40.80
2023-04-11T10:25:29.267Z,41.30
2023-04-11T10:28:04.504Z,41.30
2023-04-11T10:30:40.595Z,40.80
2023-04-11T10:33:13.052Z,40.70
2023-04-11T10:36:13.603Z,40.50
2023-04-11T10:38:43.422Z,40.10
2023-04-11T10:41:36.510Z,40.30
2023-04-11T10:44:22.567Z,39.80
2023-04-11T10:46:57.769Z,40.00
2023-04-11T10:49:38.910Z,39.80
2023-04-11T10:52:23.260Z,39.60
2023-04-11T10:54:54.030Z,39.40
2023-04-11T10:57:25.734Z,39.70
2023-04-11T10:59:52.655Z,39.70
2023-04-11T11:02:22.320Z,39.60
2023-04-11T11:04:51.914Z,39.40
2023-04-11T11:07:21.603Z,39.30
2023-04-11T11:09:56.229Z,39.40
2023-04-11T11:12:25.646Z,39.50
2023-04-11T11:14:53.116Z,39.60
2023-04-11T11:17:20.144Z,39.60
2023-04-11T11:19:50.613Z,39.40
2023-04-11T11:22:29.899Z,39.20
2023-04-11T11:25:13.031Z,38.90
2023-04-11T11:27:44.406Z,38.60
2023-04-11T11:30:16.783Z,38.80
2023-04-11T11:32:46.314Z,38.80
2023-04-11T11:35:19.338Z,38.70
2023-04-11T11:37:52.554Z,38.70
2023-04-11T11:40:22.175Z,38.40
2023-04-11T11:42:53.508Z,38.50
2023-04-11T11:45:28.203Z,38.30
2023-04-11T11:47:57.388Z,38.10
2023-04-11T11:50:26.761Z,38.20
2023-04-11T11:52:56.613Z,38.30
2023-04-11T11:55:23.661Z,38.50
2023-04-11T11:57:55.972Z,38.60
2023-04-11T12:00:27.616Z,38.40
2023-04-11T12:02:59.766Z,38.30
2023-04-11T12:05:30.323Z,38.20
2023-04-11T12:08:00.428Z,38.20
2023-04-11T12:10:44.951Z,38.00
2023-04-11T12:13:23.587Z,37.80
2023-04-11T12:15:58.217Z,37.90
2023-04-11T12:18:27.772Z,38.00
2023-04-11T12:20:55.484Z,38.00
2023-04-11T12:23:22.841Z,38.20
2023-04-11T12:25:49.816Z,38.20
2023-04-11T12:28:18.950Z,38.20
2023-04-11T12:30:48.390Z,38.30
2023-04-11T12:33:19.899Z,38.10
2023-04-11T12:35:46.845Z,38.00
2023-04-11T12:38:18.512Z,38.20
2023-04-11T12:40:46.336Z,38.20
2023-04-11T12:43:20.422Z,38.20
2023-04-11T12:45:53.250Z,38.00
2023-04-11T12:48:27.253Z,37.90
2023-04-11T12:50:54.126Z,37.80
2023-04-11T12:53:24.269Z,37.90
2023-04-11T12:55:54.314Z,37.80
2023-04-11T12:58:21.241Z,37.90
2023-04-11T13:00:50.401Z,37.80
2023-04-11T13:03:17.387Z,37.80
2023-04-11T13:05:49.193Z,37.60
2023-04-11T13:08:16.776Z,37.40
2023-04-11T13:10:45.905Z,37.30
2023-04-11T13:13:18.633Z,37.10
2023-04-11T13:15:46.576Z,37.00
2023-04-11T13:18:20.747Z,36.90
2023-04-11T13:20:49.924Z,36.60
2023-04-11T13:23:19.314Z,36.70
2023-04-11T13:25:50.944Z,36.70
2023-04-11T13:28:22.379Z,36.50
2023-04-11T13:30:52.246Z,36.50
2023-04-11T13:33:19.414Z,36.60
2023-04-11T13:35:48.585Z,36.70
2023-04-11T13:38:15.616Z,36.50
2023-04-11T13:40:42.753Z,36.30
2023-04-11T13:43:12.603Z,36.30
2023-04-11T13:45:39.542Z,36.20
2023-04-11T13:48:06.565Z,36.00
2023-04-11T13:50:37.198Z,35.80
2023-04-11T13:53:06.217Z,35.60
2023-04-11T13:55:35.682Z,35.60
2023-04-11T13:58:07.222Z,35.80
2023-04-11T14:00:36.256Z,35.90
2023-04-11T14:03:06.021Z,36.00
2023-04-11T14:05:38.460Z,36.20
2023-04-11T14:08:06.577Z,36.10
2023-04-11T14:10:34.008Z,36.20
2023-04-11T14:13:06.865Z,36.20
2023-04-11T14:15:33.876Z,36.30
2023-04-11T14:18:01.343Z,36.40
2023-04-11T14:20:28.413Z,36.20
2023-04-11T14:23:04.766Z,36.30
2023-04-11T14:25:31.679Z,36.20
2023-04-11T14:27:59.544Z,36.30
2023-04-11T14:30:26.630Z,36.10
2023-04-11T14:32:56.954Z,35.90
2023-04-11T14:35:27.049Z,35.80
2023-04-11T14:37:57.171Z,35.70
2023-04-11T14:40:24.097Z,35.80
2023-04-11T14:42:51.167Z,35.70
2023-04-11T14:45:20.314Z,36.00
2023-04-11T14:47:49.774Z,36.30
2023-04-11T14:50:16.772Z,36.10
2023-04-11T14:52:48.133Z,36.00
2023-04-11T14:55:20.412Z,36.20
2023-04-11T14:57:51.579Z,36.10
2023-04-11T15:00:20.239Z,36.20
2023-04-11T15:02:49.346Z,36.30
2023-04-11T15:05:18.074Z,36.20
2023-04-11T15:07:47.905Z,35.90
2023-04-11T15:10:19.853Z,35.80
2023-04-11T15:12:52.138Z,35.70
2023-04-11T15:15:21.280Z,35.70
2023-04-11T15:18:25.115Z,35.80
2023-04-11T15:20:52.671Z,35.90
2023-04-11T15:23:22.232Z,35.80
2023-04-11T15:25:57.391Z,35.90
2023-04-11T15:28:26.604Z,35.70
2023-04-11T15:30:57.282Z,35.50
2023-04-11T15:33:27.711Z,35.50
2023-04-11T15:35:56.077Z,35.50
2023-04-11T15:38:26.460Z,35.50
2023-04-11T15:41:00.628Z,35.30
2023-04-11T15:43:32.087Z,35.30
2023-04-11T15:46:02.027Z,35.50
2023-04-11T15:48:31.558Z,35.50
2023-04-11T15:50:58.700Z,35.40
2023-04-11T15:53:27.688Z,35.30
2023-04-11T15:55:57.496Z,35.30
2023-04-11T15:58:30.196Z,35.20
2023-04-11T16:01:03.074Z,35.40
2023-04-11T16:03:32.835Z,35.30
2023-04-11T16:06:01.245Z,35.40
2023-04-11T16:08:31.076Z,35.40
2023-04-11T16:11:02.606Z,35.40
2023-04-11T16:13:34.178Z,35.40
2023-04-11T16:16:07.212Z,35.70
2023-04-11T16:18:36.434Z,35.70
2023-04-11T16:21:03.534Z,35.40
2023-04-11T16:23:33.460Z,35.40
2023-04-11T16:26:02.622Z,35.40
2023-04-11T16:28:29.495Z,35.50
2023-04-11T16:30:58.970Z,35.40
2023-04-11T16:33:30.593Z,35.30
2023-04-11T16:35:57.546Z,35.40
2023-04-11T16:38:29.083Z,35.40
2023-04-11T16:41:03.515Z,35.40
2023-04-11T16:43:30.567Z,35.50
2023-04-11T16:46:00.077Z,35.60
2023-04-11T16:48:27.159Z,35.70
2023-04-11T16:50:56.492Z,35.80
2023-04-11T16:53:25.448Z,36.00
2023-04-11T16:55:53.626Z,35.90
2023-04-11T16:58:23.144Z,35.70
2023-04-11T17:00:53.109Z,35.90
2023-04-11T17:03:20.319Z,36.00
2023-04-11T17:05:50.137Z,36.10
2023-04-11T17:08:20.730Z,36.10
2023-04-11T17:10:49.990Z,35.90
2023-04-11T17:13:18.563Z,35.90
2023-04-11T17:15:50.318Z,35.90
2023-04-11T17:18:17.227Z,35.90
2023-04-11T17:20:46.618Z,36.00
2023-04-11T17:23:13.737Z,35.90
2023-04-11T17:25:40.711Z,35.80
2023-04-11T17:28:14.738Z,35.80
2023-04-11T17:30:41.992Z,36.00
2023-04-11T17:33:11.511Z,36.00
2023-04-11T17:35:40.700Z,36.10
2023-04-11T17:38:16.215Z,36.20
2023-04-11T17:40:44.845Z,36.20
2023-04-11T17:43:14.280Z,36.20
2023-04-11T17:45:48.076Z,36.10
2023-04-11T17:48:16.848Z,36.70
2023-04-11T17:50:46.286Z,36.70
2023-04-11T17:53:15.851Z,36.10
2023-04-11T17:55:49.998Z,36.10
2023-04-11T17:58:19.219Z,36.00
2023-04-11T18:00:55.523Z,36.10
2023-04-11T18:03:26.614Z,36.10
2023-04-11T18:05:56.719Z,36.10
2023-04-11T18:08:46.750Z,36.20
2023-04-11T18:11:16.200Z,37.00
2023-04-11T18:13:53.825Z,36.20
2023-04-11T18:16:21.574Z,36.20
2023-04-11T18:18:48.828Z,36.30
2023-04-11T18:21:18.710Z,36.40
2023-04-11T18:23:47.928Z,36.50
2023-04-11T18:26:15.112Z,36.60
2023-04-11T18:28:42.124Z,36.80
2023-04-11T18:31:10.330Z,36.80
2023-04-11T18:33:43.064Z,37.00
2023-04-11T18:36:13.761Z,37.00
2023-04-11T18:38:40.987Z,37.10
2023-04-11T18:41:11.137Z,37.10
2023-04-11T18:43:42.778Z,37.10
2023-04-11T18:46:12.558Z,37.20
2023-04-11T18:48:44.130Z,37.30
2023-04-11T18:51:10.927Z,37.30
2023-04-11T18:53:40.970Z,37.40
2023-04-11T18:56:08.324Z,37.30
2023-04-11T18:58:39.710Z,37.30
2023-04-11T19:01:16.564Z,37.50
2023-04-11T19:03:47.836Z,37.70
2023-04-11T19:06:15.108Z,37.70
2023-04-11T19:08:42.155Z,37.80
2023-04-11T19:11:11.394Z,37.90
2023-04-11T19:13:41.053Z,37.90
2023-04-11T19:16:08.154Z,37.90
2023-04-11T19:18:35.095Z,38.70
2023-04-11T19:21:04.328Z,38.10
2023-04-11T19:23:31.512Z,38.00
2023-04-11T19:26:00.570Z,38.00
2023-04-11T19:28:29.676Z,38.00
2023-04-11T19:30:58.802Z,38.10
2023-04-11T19:33:26.208Z,38.10
2023-04-11T19:35:55.714Z,38.30
2023-04-11T19:38:22.569Z,38.40
2023-04-11T20:07:00.900Z,38.80
2023-04-11T20:09:28.892Z,38.90
2023-04-11T20:12:00.111Z,39.10
2023-04-11T20:14:27.001Z,39.10
2023-04-11T20:16:54.090Z,39.20
2023-04-11T20:19:21.595Z,39.20
2023-04-11T20:21:48.920Z,39.40
2023-04-11T20:24:18.441Z,39.40
2023-04-11T20:26:46.531Z,39.50
2023-04-11T20:29:14.157Z,39.60
2023-04-11T20:31:41.249Z,39.50
2023-04-11T20:34:11.552Z,39.60
2023-04-11T20:36:38.926Z,39.60
2023-04-11T20:39:06.301Z,39.60
2023-04-11T20:41:34.019Z,39.70
2023-04-11T20:44:00.885Z,39.70
2023-04-11T20:46:30.510Z,39.70
2023-04-11T20:48:57.592Z,39.80
2023-04-11T20:51:26.708Z,39.90
2023-04-11T20:53:53.782Z,40.00
2023-04-11T20:56:23.721Z,40.10
2023-04-11T20:58:52.739Z,40.20
2023-04-11T21:01:20.238Z,40.20
2023-04-11T21:03:47.461Z,40.20
2023-04-11T21:06:14.572Z,40.30
2023-04-11T21:08:41.460Z,40.30
2023-04-11T21:11:08.392Z,40.30
2023-04-11T21:13:37.985Z,40.50
2023-04-11T21:16:05.181Z,40.40
2023-04-11T21:18:32.515Z,40.50
2023-04-11T21:21:02.075Z,40.60
2023-04-11T21:23:29.038Z,40.70
2023-04-11T21:25:55.955Z,40.80
2023-04-11T21:28:22.938Z,40.90
2023-04-11T21:30:49.930Z,41.00
2023-04-11T21:33:17.404Z,41.10
2023-04-11T21:35:44.901Z,41.10
2023-04-11T21:38:14.221Z,41.20
2023-04-11T21:40:43.340Z,41.40
2023-04-11T21:43:14.846Z,41.40
2023-04-11T21:45:41.871Z,41.40
2023-04-11T21:48:11.290Z,41.50
2023-04-11T21:50:40.884Z,41.60
2023-04-11T21:53:07.826Z,41.70
2023-04-11T21:55:34.784Z,41.80
2023-04-11T21:58:01.728Z,42.00
2023-04-11T22:00:31.092Z,42.10
2023-04-11T22:02:58.109Z,42.10
2023-04-11T22:05:27.514Z,42.20
2023-04-11T22:08:20.370Z,42.40
2023-04-11T22:10:48.280Z,43.00
2023-04-11T22:13:19.248Z,42.80
2023-04-11T22:15:58.354Z,43.00
2023-04-11T22:18:28.140Z,43.20
2023-04-11T22:20:57.436Z,43.40
2023-04-11T22:23:26.505Z,43.70
2023-04-11T22:25:59.725Z,43.80
2023-04-11T22:28:27.036Z,44.20
2023-04-11T22:30:54.050Z,44.30
2023-04-11T22:33:21.038Z,44.50
2023-04-11T22:35:48.212Z,44.70
2023-04-11T22:38:17.401Z,44.80
2023-04-11T22:40:44.321Z,45.10
2023-04-11T22:43:13.462Z,45.20
2023-04-11T22:45:42.916Z,45.40
2023-04-11T22:48:13.878Z,45.60
2023-04-11T22:50:40.787Z,45.70
2023-04-11T22:53:09.553Z,45.80
2023-04-11T22:55:36.601Z,45.90
2023-04-11T22:58:04.067Z,46.00
2023-04-11T23:00:37.973Z,46.00
2023-04-11T23:03:07.248Z,46.20
2023-04-11T23:05:39.577Z,46.40
2023-04-11T23:08:09.942Z,47.10
2023-04-11T23:10:40.631Z,46.50
2023-04-11T23:13:09.620Z,46.50
2023-04-11T23:15:37.363Z,46.60
2023-04-11T23:18:04.479Z,46.70
2023-04-11T23:20:35.281Z,46.80
2023-04-11T23:23:02.136Z,46.90
2023-04-11T23:25:29.113Z,47.00
2023-04-11T23:27:58.427Z,47.00
2023-04-11T23:30:30.722Z,47.20
2023-04-11T23:32:58.233Z,47.30
2023-04-11T23:35:26.124Z,47.30
2023-04-11T23:37:53.038Z,47.40
2023-04-11T23:40:22.804Z,47.40
2023-04-11T23:42:52.717Z,47.40
2023-04-11T23:45:22.535Z,47.40
2023-04-11T23:47:50.942Z,47.40
2023-04-11T23:50:21.118Z,48.10
2023-04-11T23:52:48.059Z,47.50
2023-04-11T23:55:17.210Z,47.60
2023-04-11T23:57:46.385Z,47.70
